sensor_id;sensor_type;location;lat;lon;timestamp;temperature;humidity
802;DHT22;383;48.766;9.270;2023-02-11T00:00:42;-0.50;88.40
802;DHT22;383;48.766;9.270;2023-02-11T00:03:09;-0.50;88.40
802;DHT22;383;48.766;9.270;2023-02-11T00:05:36;-0.60;88.50
802;DHT22;383;48.766;9.270;2023-02-11T00:08:03;-0.60;88.80
802;DHT22;383;48.766;9.270;2023-02-11T00:10:30;-0.70;88.90
802;DHT22;383;48.766;9.270;2023-02-11T00:12:58;-0.70;89.00
802;DHT22;383;48.766;9.270;2023-02-11T00:15:25;-0.70;89.20
802;DHT22;383;48.766;9.270;2023-02-11T00:17:51;-0.70;89.20
802;DHT22;383;48.766;9.270;2023-02-11T00:20:18;-0.80;89.40
802;DHT22;383;48.766;9.270;2023-02-11T00:22:45;-0.80;89.40
802;DHT22;383;48.766;9.270;2023-02-11T00:25:11;-0.80;89.60
802;DHT22;383;48.766;9.270;2023-02-11T00:27:38;-0.80;89.60
802;DHT22;383;48.766;9.270;2023-02-11T00:30:07;-0.80;89.60
802;DHT22;383;48.766;9.270;2023-02-11T00:32:34;-0.90;89.60
802;DHT22;383;48.766;9.270;2023-02-11T00:35:01;-0.90;89.80
802;DHT22;383;48.766;9.270;2023-02-11T00:37:27;-0.90;89.90
802;DHT22;383;48.766;9.270;2023-02-11T00:39:54;-0.90;89.60
802;DHT22;383;48.766;9.270;2023-02-11T00:42:21;-0.90;89.80
802;DHT22;383;48.766;9.270;2023-02-11T00:44:47;-0.90;90.00
802;DHT22;383;48.766;9.270;2023-02-11T00:47:16;-0.90;89.90
802;DHT22;383;48.766;9.270;2023-02-11T00:49:43;-0.90;89.40
802;DHT22;383;48.766;9.270;2023-02-11T00:52:09;-0.90;89.70
802;DHT22;383;48.766;9.270;2023-02-11T00:54:36;-0.90;89.80
802;DHT22;383;48.766;9.270;2023-02-11T00:57:03;-0.90;89.70
802;DHT22;383;48.766;9.270;2023-02-11T00:59:29;-0.80;89.70
802;DHT22;383;48.766;9.270;2023-02-11T01:01:56;-0.90;89.70
802;DHT22;383;48.766;9.270;2023-02-11T01:04:24;-0.90;89.70
802;DHT22;383;48.766;9.270;2023-02-11T01:06:51;-0.90;89.80
802;DHT22;383;48.766;9.270;2023-02-11T01:09:18;-1.00;89.90
802;DHT22;383;48.766;9.270;2023-02-11T01:11:45;-1.00;90.20
802;DHT22;383;48.766;9.270;2023-02-11T01:14:12;-1.10;90.40
802;DHT22;383;48.766;9.270;2023-02-11T01:16:39;-1.00;90.30
802;DHT22;383;48.766;9.270;2023-02-11T01:19:05;-1.00;89.90
802;DHT22;383;48.766;9.270;2023-02-11T01:21:33;-1.00;90.20
802;DHT22;383;48.766;9.270;2023-02-11T01:24:00;-1.00;90.10
802;DHT22;383;48.766;9.270;2023-02-11T01:26:27;-1.00;90.20
802;DHT22;383;48.766;9.270;2023-02-11T01:28:54;-1.00;89.90
802;DHT22;383;48.766;9.270;2023-02-11T01:31:21;-1.00;90.40
802;DHT22;383;48.766;9.270;2023-02-11T01:33:48;-0.90;90.10
802;DHT22;383;48.766;9.270;2023-02-11T01:36:14;-0.90;89.70
802;DHT22;383;48.766;9.270;2023-02-11T01:38:42;-1.10;89.90
802;DHT22;383;48.766;9.270;2023-02-11T01:41:11;-1.10;90.60
802;DHT22;383;48.766;9.270;2023-02-11T01:43:42;-1.10;90.30
802;DHT22;383;48.766;9.270;2023-02-11T01:46:19;-1.10;90.80
802;DHT22;383;48.766;9.270;2023-02-11T01:48:51;-1.00;90.40
802;DHT22;383;48.766;9.270;2023-02-11T01:51:22;-1.00;90.40
802;DHT22;383;48.766;9.270;2023-02-11T01:53:52;-1.00;90.80
802;DHT22;383;48.766;9.270;2023-02-11T01:56:41;-1.00;90.90
802;DHT22;383;48.766;9.270;2023-02-11T01:59:30;-1.00;91.00
802;DHT22;383;48.766;9.270;2023-02-11T02:02:02;-1.00;91.10
802;DHT22;383;48.766;9.270;2023-02-11T02:04:34;-1.00;91.10
802;DHT22;383;48.766;9.270;2023-02-11T02:07:07;-0.90;90.90
802;DHT22;383;48.766;9.270;2023-02-11T02:09:41;-0.90;91.00
802;DHT22;383;48.766;9.270;2023-02-11T02:12:09;-0.90;91.10
802;DHT22;383;48.766;9.270;2023-02-11T02:14:37;-0.90;91.00
802;DHT22;383;48.766;9.270;2023-02-11T02:17:05;-0.90;91.10
802;DHT22;383;48.766;9.270;2023-02-11T02:22:53;-0.80;91.00
802;DHT22;383;48.766;9.270;2023-02-11T02:25:52;-0.70;90.40
802;DHT22;383;48.766;9.270;2023-02-11T02:28:49;-0.70;90.30
802;DHT22;383;48.766;9.270;2023-02-11T02:31:32;-0.70;90.10
802;DHT22;383;48.766;9.270;2023-02-11T02:34:10;-0.70;90.10
802;DHT22;383;48.766;9.270;2023-02-11T02:36:42;-0.70;90.10
802;DHT22;383;48.766;9.270;2023-02-11T02:39:17;-0.70;90.00
802;DHT22;383;48.766;9.270;2023-02-11T02:41:46;-0.70;89.90
802;DHT22;383;48.766;9.270;2023-02-11T02:44:14;-0.60;89.60
802;DHT22;383;48.766;9.270;2023-02-11T02:46:41;-0.70;89.70
802;DHT22;383;48.766;9.270;2023-02-11T02:49:12;-0.60;89.90
802;DHT22;383;48.766;9.270;2023-02-11T02:54:47;-0.70;90.00
802;DHT22;383;48.766;9.270;2023-02-11T02:57:28;-0.80;90.30
802;DHT22;383;48.766;9.270;2023-02-11T03:00:05;-0.80;90.40
802;DHT22;383;48.766;9.270;2023-02-11T03:02:41;-0.70;90.40
802;DHT22;383;48.766;9.270;2023-02-11T09:04:25;4.00;76.50
802;DHT22;383;48.766;9.270;2023-02-11T09:06:52;4.00;77.40
802;DHT22;383;48.766;9.270;2023-02-11T09:09:19;3.90;77.50
802;DHT22;383;48.766;9.270;2023-02-11T09:11:46;4.00;77.80
802;DHT22;383;48.766;9.270;2023-02-11T09:14:17;4.10;77.30
802;DHT22;383;48.766;9.270;2023-02-11T09:16:44;4.20;77.10
802;DHT22;383;48.766;9.270;2023-02-11T09:19:11;4.30;77.10
802;DHT22;383;48.766;9.270;2023-02-11T09:21:39;4.30;76.50
802;DHT22;383;48.766;9.270;2023-02-11T09:24:09;4.50;75.20
802;DHT22;383;48.766;9.270;2023-02-11T09:26:36;4.60;75.30
802;DHT22;383;48.766;9.270;2023-02-11T09:29:05;4.60;75.20
802;DHT22;383;48.766;9.270;2023-02-11T09:31:33;4.60;75.30
802;DHT22;383;48.766;9.270;2023-02-11T09:34:01;4.70;75.60
802;DHT22;383;48.766;9.270;2023-02-11T09:36:30;4.80;75.00
802;DHT22;383;48.766;9.270;2023-02-11T09:39:00;4.80;75.00
802;DHT22;383;48.766;9.270;2023-02-11T09:42:09;4.80;75.00
802;DHT22;383;48.766;9.270;2023-02-11T09:44:37;4.90;74.40
802;DHT22;383;48.766;9.270;2023-02-11T09:47:06;4.80;74.20
802;DHT22;383;48.766;9.270;2023-02-11T09:49:41;4.80;75.20
802;DHT22;383;48.766;9.270;2023-02-11T09:52:14;4.90;75.40
802;DHT22;383;48.766;9.270;2023-02-11T09:54:52;5.00;75.30
802;DHT22;383;48.766;9.270;2023-02-11T09:57:20;5.10;75.00
802;DHT22;383;48.766;9.270;2023-02-11T09:59:47;5.30;74.90
802;DHT22;383;48.766;9.270;2023-02-11T10:02:21;5.50;74.10
802;DHT22;383;48.766;9.270;2023-02-11T10:05:17;5.60;73.80
802;DHT22;383;48.766;9.270;2023-02-11T10:07:52;5.70;73.20
802;DHT22;383;48.766;9.270;2023-02-11T10:10:33;5.80;72.50
802;DHT22;383;48.766;9.270;2023-02-11T10:13:21;5.90;72.40
802;DHT22;383;48.766;9.270;2023-02-11T10:15:55;6.00;72.40
802;DHT22;383;48.766;9.270;2023-02-11T10:18:42;6.20;71.90
802;DHT22;383;48.766;9.270;2023-02-11T10:21:18;6.30;71.60
802;DHT22;383;48.766;9.270;2023-02-11T10:23:53;6.40;71.20
802;DHT22;383;48.766;9.270;2023-02-11T10:26:22;6.50;70.90
802;DHT22;383;48.766;9.270;2023-02-11T10:28:51;6.60;70.70
802;DHT22;383;48.766;9.270;2023-02-11T10:31:22;6.70;70.40
802;DHT22;383;48.766;9.270;2023-02-11T10:33:54;6.70;70.10
802;DHT22;383;48.766;9.270;2023-02-11T10:36:25;6.80;70.30
802;DHT22;383;48.766;9.270;2023-02-11T10:38:53;6.80;70.30
802;DHT22;383;48.766;9.270;2023-02-11T10:41:23;6.90;70.30
802;DHT22;383;48.766;9.270;2023-02-11T10:43:51;6.80;70.00
802;DHT22;383;48.766;9.270;2023-02-11T10:46:21;6.90;70.10
802;DHT22;383;48.766;9.270;2023-02-11T10:48:51;7.10;69.60
802;DHT22;383;48.766;9.270;2023-02-11T10:51:21;7.20;69.30
802;DHT22;383;48.766;9.270;2023-02-11T10:53:49;7.20;69.30
802;DHT22;383;48.766;9.270;2023-02-11T10:56:24;7.20;69.50
802;DHT22;383;48.766;9.270;2023-02-11T10:58:58;7.20;69.50
802;DHT22;383;48.766;9.270;2023-02-11T11:01:42;7.30;69.60
802;DHT22;383;48.766;9.270;2023-02-11T11:04:32;7.50;68.90
802;DHT22;383;48.766;9.270;2023-02-11T11:07:11;7.50;68.90
802;DHT22;383;48.766;9.270;2023-02-11T11:09:44;7.60;69.10
802;DHT22;383;48.766;9.270;2023-02-11T11:12:24;7.60;68.80
802;DHT22;383;48.766;9.270;2023-02-11T11:14:53;7.70;68.40
802;DHT22;383;48.766;9.270;2023-02-11T11:17:20;7.80;68.00
802;DHT22;383;48.766;9.270;2023-02-11T11:19:47;7.80;67.90
802;DHT22;383;48.766;9.270;2023-02-11T11:22:19;7.70;68.20
802;DHT22;383;48.766;9.270;2023-02-11T11:24:47;7.90;67.90
802;DHT22;383;48.766;9.270;2023-02-11T11:27:20;7.90;67.50
802;DHT22;383;48.766;9.270;2023-02-11T11:29:52;7.90;67.90
802;DHT22;383;48.766;9.270;2023-02-11T11:32:22;7.90;68.40
802;DHT22;383;48.766;9.270;2023-02-11T11:34:50;8.00;67.90
802;DHT22;383;48.766;9.270;2023-02-11T11:37:23;8.10;67.20
802;DHT22;383;48.766;9.270;2023-02-11T11:39:56;8.20;67.10
802;DHT22;383;48.766;9.270;2023-02-11T11:42:26;8.30;66.80
802;DHT22;383;48.766;9.270;2023-02-11T11:45:00;8.30;66.70
802;DHT22;383;48.766;9.270;2023-02-11T11:47:35;8.30;65.80
802;DHT22;383;48.766;9.270;2023-02-11T11:50:25;8.40;65.90
802;DHT22;383;48.766;9.270;2023-02-11T11:52:58;8.50;66.00
802;DHT22;383;48.766;9.270;2023-02-11T11:55:28;8.60;66.20
802;DHT22;383;48.766;9.270;2023-02-11T11:57:57;8.80;65.60
802;DHT22;383;48.766;9.270;2023-02-11T12:00:31;8.80;64.90
802;DHT22;383;48.766;9.270;2023-02-11T12:06:10;9.20;63.90
802;DHT22;383;48.766;9.270;2023-02-11T12:08:46;9.40;63.00
802;DHT22;383;48.766;9.270;2023-02-11T12:11:19;9.50;63.00
802;DHT22;383;48.766;9.270;2023-02-11T12:13:58;9.70;61.90
802;DHT22;383;48.766;9.270;2023-02-11T12:16:35;9.70;62.10
802;DHT22;383;48.766;9.270;2023-02-11T12:19:27;9.80;61.90
802;DHT22;383;48.766;9.270;2023-02-11T12:22:03;10.00;60.90
802;DHT22;383;48.766;9.270;2023-02-11T12:24:52;10.00;61.50
802;DHT22;383;48.766;9.270;2023-02-11T12:27:32;10.30;60.60
802;DHT22;383;48.766;9.270;2023-02-11T12:30:13;10.40;60.40
802;DHT22;383;48.766;9.270;2023-02-11T12:32:48;10.60;59.30
802;DHT22;383;48.766;9.270;2023-02-11T12:35:28;10.80;58.50
802;DHT22;383;48.766;9.270;2023-02-11T12:38:10;10.80;59.00
802;DHT22;383;48.766;9.270;2023-02-11T12:40:45;11.00;58.60
802;DHT22;383;48.766;9.270;2023-02-11T12:43:20;11.10;58.20
802;DHT22;383;48.766;9.270;2023-02-11T12:49:06;11.10;59.20
802;DHT22;383;48.766;9.270;2023-02-11T12:51:47;11.10;59.60
802;DHT22;383;48.766;9.270;2023-02-11T12:54:22;11.00;60.50
802;DHT22;383;48.766;9.270;2023-02-11T12:56:52;11.10;60.50
802;DHT22;383;48.766;9.270;2023-02-11T12:59:32;11.00;60.60
802;DHT22;383;48.766;9.270;2023-02-11T13:02:08;11.00;60.80
802;DHT22;383;48.766;9.270;2023-02-11T13:04:41;11.00;61.40
802;DHT22;383;48.766;9.270;2023-02-11T13:07:15;10.90;61.70
802;DHT22;383;48.766;9.270;2023-02-11T13:09:47;10.80;62.60
802;DHT22;383;48.766;9.270;2023-02-11T13:12:16;10.70;63.30
802;DHT22;383;48.766;9.270;2023-02-11T13:15:06;10.60;63.90
802;DHT22;383;48.766;9.270;2023-02-11T13:17:39;10.60;64.60
802;DHT22;383;48.766;9.270;2023-02-11T13:20:20;10.60;64.60
802;DHT22;383;48.766;9.270;2023-02-11T13:22:54;10.50;64.60
802;DHT22;383;48.766;9.270;2023-02-11T13:25:29;10.60;65.00
802;DHT22;383;48.766;9.270;2023-02-11T13:28:02;10.60;65.40
802;DHT22;383;48.766;9.270;2023-02-11T13:30:32;10.70;65.00
802;DHT22;383;48.766;9.270;2023-02-11T13:33:17;10.80;64.90
802;DHT22;383;48.766;9.270;2023-02-11T13:35:48;10.80;64.90
802;DHT22;383;48.766;9.270;2023-02-11T13:38:20;10.70;65.20
802;DHT22;383;48.766;9.270;2023-02-11T13:41:00;10.60;65.60
802;DHT22;383;48.766;9.270;2023-02-11T13:43:28;10.50;66.20
802;DHT22;383;48.766;9.270;2023-02-11T13:45:58;10.40;66.30
802;DHT22;383;48.766;9.270;2023-02-11T13:48:27;10.30;67.50
802;DHT22;383;48.766;9.270;2023-02-11T13:50:58;10.20;67.90
802;DHT22;383;48.766;9.270;2023-02-11T13:53:26;10.10;68.90
802;DHT22;383;48.766;9.270;2023-02-11T13:56:08;10.00;69.50
802;DHT22;383;48.766;9.270;2023-02-11T13:58:36;10.00;70.10
802;DHT22;383;48.766;9.270;2023-02-11T14:01:40;10.00;70.30
802;DHT22;383;48.766;9.270;2023-02-11T14:04:19;10.00;70.40
802;DHT22;383;48.766;9.270;2023-02-11T14:07:25;10.00;70.10
802;DHT22;383;48.766;9.270;2023-02-11T14:13:21;10.10;70.10
802;DHT22;383;48.766;9.270;2023-02-11T14:15:48;10.10;70.40
802;DHT22;383;48.766;9.270;2023-02-11T14:19:00;10.10;70.00
802;DHT22;383;48.766;9.270;2023-02-11T14:21:33;10.10;70.10
802;DHT22;383;48.766;9.270;2023-02-11T14:24:42;10.10;70.00
802;DHT22;383;48.766;9.270;2023-02-11T14:27:15;10.10;69.90
802;DHT22;383;48.766;9.270;2023-02-11T14:29:52;10.10;69.90
802;DHT22;383;48.766;9.270;2023-02-11T14:32:35;10.20;70.10
802;DHT22;383;48.766;9.270;2023-02-11T14:35:10;10.20;70.00
802;DHT22;383;48.766;9.270;2023-02-11T14:37:44;10.30;69.60
802;DHT22;383;48.766;9.270;2023-02-11T14:40:20;10.30;69.30
802;DHT22;383;48.766;9.270;2023-02-11T14:42:49;10.40;69.60
802;DHT22;383;48.766;9.270;2023-02-11T14:45:19;10.40;69.60
802;DHT22;383;48.766;9.270;2023-02-11T14:47:50;10.50;69.10
802;DHT22;383;48.766;9.270;2023-02-11T14:50:24;10.60;68.90
802;DHT22;383;48.766;9.270;2023-02-11T14:52:52;10.50;68.70
802;DHT22;383;48.766;9.270;2023-02-11T14:55:29;10.50;69.20
802;DHT22;383;48.766;9.270;2023-02-11T14:58:22;10.50;68.70
802;DHT22;383;48.766;9.270;2023-02-11T15:00:52;10.50;68.60
802;DHT22;383;48.766;9.270;2023-02-11T15:03:32;10.50;68.70
802;DHT22;383;48.766;9.270;2023-02-11T15:06:03;10.50;68.80
802;DHT22;383;48.766;9.270;2023-02-11T15:08:31;10.50;67.90
802;DHT22;383;48.766;9.270;2023-02-11T15:11:02;10.50;67.60
802;DHT22;383;48.766;9.270;2023-02-11T15:13:30;10.50;67.60
802;DHT22;383;48.766;9.270;2023-02-11T15:15:59;10.40;68.20
802;DHT22;383;48.766;9.270;2023-02-11T15:18:34;10.30;68.40
802;DHT22;383;48.766;9.270;2023-02-11T15:21:04;10.00;69.50
802;DHT22;383;48.766;9.270;2023-02-11T15:23:32;9.90;69.50
802;DHT22;383;48.766;9.270;2023-02-11T15:25:58;9.80;70.30
802;DHT22;383;48.766;9.270;2023-02-11T15:28:31;9.70;70.30
802;DHT22;383;48.766;9.270;2023-02-11T15:31:00;9.70;70.30
802;DHT22;383;48.766;9.270;2023-02-11T15:33:27;9.70;69.90
802;DHT22;383;48.766;9.270;2023-02-11T15:35:57;9.60;69.90
802;DHT22;383;48.766;9.270;2023-02-11T15:38:25;9.50;69.60
802;DHT22;383;48.766;9.270;2023-02-11T15:40:54;9.40;70.10
802;DHT22;383;48.766;9.270;2023-02-11T15:43:21;9.40;70.30
802;DHT22;383;48.766;9.270;2023-02-11T15:45:57;9.30;70.70
802;DHT22;383;48.766;9.270;2023-02-11T15:48:32;9.10;71.30
802;DHT22;383;48.766;9.270;2023-02-11T15:51:02;9.10;71.60
802;DHT22;383;48.766;9.270;2023-02-11T15:53:34;9.10;71.70
802;DHT22;383;48.766;9.270;2023-02-11T15:56:09;9.10;71.70
802;DHT22;383;48.766;9.270;2023-02-11T15:58:37;9.10;71.90
802;DHT22;383;48.766;9.270;2023-02-11T16:01:05;9.00;72.00
802;DHT22;383;48.766;9.270;2023-02-11T16:03:32;9.00;72.00
802;DHT22;383;48.766;9.270;2023-02-11T16:06:20;8.80;72.90
802;DHT22;383;48.766;9.270;2023-02-11T16:09:02;8.90;72.60
802;DHT22;383;48.766;9.270;2023-02-11T16:11:31;8.90;72.40
802;DHT22;383;48.766;9.270;2023-02-11T16:13:59;8.90;72.50
802;DHT22;383;48.766;9.270;2023-02-11T16:16:29;8.90;72.60
802;DHT22;383;48.766;9.270;2023-02-11T16:18:58;8.90;72.60
802;DHT22;383;48.766;9.270;2023-02-11T16:21:29;8.90;72.50
802;DHT22;383;48.766;9.270;2023-02-11T16:23:59;8.90;72.60
802;DHT22;383;48.766;9.270;2023-02-11T16:26:30;9.00;72.50
802;DHT22;383;48.766;9.270;2023-02-11T16:29:10;9.00;72.50
802;DHT22;383;48.766;9.270;2023-02-11T16:31:39;8.90;73.00
802;DHT22;383;48.766;9.270;2023-02-11T16:34:14;8.80;73.40
802;DHT22;383;48.766;9.270;2023-02-11T16:36:41;8.80;73.70
802;DHT22;383;48.766;9.270;2023-02-11T16:39:09;8.70;74.00
802;DHT22;383;48.766;9.270;2023-02-11T16:41:37;8.70;74.20
802;DHT22;383;48.766;9.270;2023-02-11T16:44:04;8.60;74.40
802;DHT22;383;48.766;9.270;2023-02-11T16:46:32;8.60;74.60
802;DHT22;383;48.766;9.270;2023-02-11T16:49:07;8.60;74.90
802;DHT22;383;48.766;9.270;2023-02-11T16:51:38;8.60;74.90
802;DHT22;383;48.766;9.270;2023-02-11T16:54:05;8.60;74.90
802;DHT22;383;48.766;9.270;2023-02-11T16:56:31;8.60;75.00
802;DHT22;383;48.766;9.270;2023-02-11T16:58:59;8.60;74.50
802;DHT22;383;48.766;9.270;2023-02-11T17:01:26;8.60;74.90
802;DHT22;383;48.766;9.270;2023-02-11T17:03:53;8.50;75.20
802;DHT22;383;48.766;9.270;2023-02-11T17:06:20;8.50;75.30
802;DHT22;383;48.766;9.270;2023-02-11T17:08:46;8.50;75.30
802;DHT22;383;48.766;9.270;2023-02-11T17:11:13;8.50;75.30
802;DHT22;383;48.766;9.270;2023-02-11T17:13:41;8.50;75.40
802;DHT22;383;48.766;9.270;2023-02-11T17:16:15;8.50;75.70
802;DHT22;383;48.766;9.270;2023-02-11T17:18:43;8.40;75.80
802;DHT22;383;48.766;9.270;2023-02-11T17:21:09;8.50;75.80
802;DHT22;383;48.766;9.270;2023-02-11T17:23:36;8.40;76.00
802;DHT22;383;48.766;9.270;2023-02-11T17:26:03;8.50;75.80
802;DHT22;383;48.766;9.270;2023-02-11T17:28:31;8.50;76.00
802;DHT22;383;48.766;9.270;2023-02-11T17:30:58;8.50;76.10
802;DHT22;383;48.766;9.270;2023-02-11T17:33:26;8.50;76.10
802;DHT22;383;48.766;9.270;2023-02-11T17:35:53;8.50;76.20
802;DHT22;383;48.766;9.270;2023-02-11T17:38:26;8.40;76.60
802;DHT22;383;48.766;9.270;2023-02-11T17:40:59;8.50;76.10
802;DHT22;383;48.766;9.270;2023-02-11T17:43:25;8.50;76.10
802;DHT22;383;48.766;9.270;2023-02-11T17:45:52;8.50;76.10
802;DHT22;383;48.766;9.270;2023-02-11T17:48:19;8.40;76.30
802;DHT22;383;48.766;9.270;2023-02-11T17:50:47;8.40;76.70
802;DHT22;383;48.766;9.270;2023-02-11T17:53:14;8.40;76.70
802;DHT22;383;48.766;9.270;2023-02-11T17:55:40;8.40;76.70
802;DHT22;383;48.766;9.270;2023-02-11T17:58:07;8.40;76.90
802;DHT22;383;48.766;9.270;2023-02-11T18:00:34;8.40;76.90
802;DHT22;383;48.766;9.270;2023-02-11T18:03:01;8.40;76.90
802;DHT22;383;48.766;9.270;2023-02-11T18:05:31;8.40;77.10
802;DHT22;383;48.766;9.270;2023-02-11T18:08:00;8.40;77.00
802;DHT22;383;48.766;9.270;2023-02-11T18:10:26;8.40;77.00
802;DHT22;383;48.766;9.270;2023-02-11T18:12:53;8.30;77.40
802;DHT22;383;48.766;9.270;2023-02-11T18:15:20;8.40;77.80
802;DHT22;383;48.766;9.270;2023-02-11T18:17:47;8.40;77.40
802;DHT22;383;48.766;9.270;2023-02-11T18:20:14;8.30;77.40
802;DHT22;383;48.766;9.270;2023-02-11T18:22:41;8.30;77.90
802;DHT22;383;48.766;9.270;2023-02-11T18:25:12;8.20;78.20
802;DHT22;383;48.766;9.270;2023-02-11T18:27:39;8.20;78.30
802;DHT22;383;48.766;9.270;2023-02-11T18:30:10;8.20;78.50
802;DHT22;383;48.766;9.270;2023-02-11T18:32:39;8.10;78.60
802;DHT22;383;48.766;9.270;2023-02-11T18:35:07;8.10;79.00
802;DHT22;383;48.766;9.270;2023-02-11T18:37:39;8.10;79.00
802;DHT22;383;48.766;9.270;2023-02-11T18:40:06;8.20;79.00
802;DHT22;383;48.766;9.270;2023-02-11T18:42:35;8.20;79.10
802;DHT22;383;48.766;9.270;2023-02-11T18:45:02;8.10;79.10
802;DHT22;383;48.766;9.270;2023-02-11T18:47:30;8.10;79.10
802;DHT22;383;48.766;9.270;2023-02-11T18:49:56;8.10;79.10
802;DHT22;383;48.766;9.270;2023-02-11T18:52:25;8.00;79.50
802;DHT22;383;48.766;9.270;2023-02-11T18:54:52;8.10;79.80
802;DHT22;383;48.766;9.270;2023-02-11T18:57:18;8.00;79.80
802;DHT22;383;48.766;9.270;2023-02-11T18:59:47;8.00;80.00
802;DHT22;383;48.766;9.270;2023-02-11T19:02:15;8.00;80.20
802;DHT22;383;48.766;9.270;2023-02-11T19:04:41;8.00;80.30
802;DHT22;383;48.766;9.270;2023-02-11T19:07:09;7.90;80.40
802;DHT22;383;48.766;9.270;2023-02-11T19:09:35;7.90;80.70
802;DHT22;383;48.766;9.270;2023-02-11T19:12:02;7.90;80.80
802;DHT22;383;48.766;9.270;2023-02-11T19:14:32;7.90;81.20
802;DHT22;383;48.766;9.270;2023-02-11T19:17:03;7.90;81.20
802;DHT22;383;48.766;9.270;2023-02-11T19:19:31;7.90;81.20
802;DHT22;383;48.766;9.270;2023-02-11T19:21:59;7.90;81.10
802;DHT22;383;48.766;9.270;2023-02-11T19:24:27;7.90;81.00
802;DHT22;383;48.766;9.270;2023-02-11T19:26:56;7.90;80.80
802;DHT22;383;48.766;9.270;2023-02-11T19:29:23;8.00;80.40
802;DHT22;383;48.766;9.270;2023-02-11T19:31:51;7.90;80.60
802;DHT22;383;48.766;9.270;2023-02-11T19:34:20;7.90;80.40
802;DHT22;383;48.766;9.270;2023-02-11T19:36:50;7.90;80.70
802;DHT22;383;48.766;9.270;2023-02-11T19:39:18;7.90;80.80
802;DHT22;383;48.766;9.270;2023-02-11T19:41:45;7.80;80.60
802;DHT22;383;48.766;9.270;2023-02-11T19:44:13;7.80;81.00
802;DHT22;383;48.766;9.270;2023-02-11T19:46:40;7.80;81.00
802;DHT22;383;48.766;9.270;2023-02-11T19:49:07;7.70;81.40
802;DHT22;383;48.766;9.270;2023-02-11T19:51:36;7.60;81.60
802;DHT22;383;48.766;9.270;2023-02-11T19:54:04;7.60;81.50
802;DHT22;383;48.766;9.270;2023-02-11T19:56:31;7.50;81.80
802;DHT22;383;48.766;9.270;2023-02-11T19:59:00;7.50;82.20
802;DHT22;383;48.766;9.270;2023-02-11T20:01:27;7.40;82.40
802;DHT22;383;48.766;9.270;2023-02-11T20:03:54;7.30;82.70
802;DHT22;383;48.766;9.270;2023-02-11T20:06:24;7.30;82.70
802;DHT22;383;48.766;9.270;2023-02-11T20:08:54;7.20;82.80
802;DHT22;383;48.766;9.270;2023-02-11T20:11:21;7.30;82.80
802;DHT22;383;48.766;9.270;2023-02-11T20:13:48;7.20;83.00
802;DHT22;383;48.766;9.270;2023-02-11T20:16:17;7.30;83.20
802;DHT22;383;48.766;9.270;2023-02-11T20:18:45;7.30;83.10
802;DHT22;383;48.766;9.270;2023-02-11T20:21:13;7.30;83.10
802;DHT22;383;48.766;9.270;2023-02-11T20:23:41;7.40;83.10
802;DHT22;383;48.766;9.270;2023-02-11T20:26:13;7.40;83.00
802;DHT22;383;48.766;9.270;2023-02-11T20:28:40;7.30;83.20
802;DHT22;383;48.766;9.270;2023-02-11T20:31:08;7.30;83.60
802;DHT22;383;48.766;9.270;2023-02-11T20:33:36;7.20;84.00
802;DHT22;383;48.766;9.270;2023-02-11T20:36:05;7.30;83.90
802;DHT22;383;48.766;9.270;2023-02-11T20:38:32;7.30;83.70
802;DHT22;383;48.766;9.270;2023-02-11T20:41:02;7.20;83.90
802;DHT22;383;48.766;9.270;2023-02-11T20:43:31;7.20;84.00
802;DHT22;383;48.766;9.270;2023-02-11T20:46:01;7.20;84.00
802;DHT22;383;48.766;9.270;2023-02-11T20:48:28;7.30;84.00
802;DHT22;383;48.766;9.270;2023-02-11T20:51:01;7.20;84.10
802;DHT22;383;48.766;9.270;2023-02-11T20:53:28;7.20;84.10
802;DHT22;383;48.766;9.270;2023-02-11T20:55:55;7.20;84.30
802;DHT22;383;48.766;9.270;2023-02-11T20:58:21;7.20;84.70
802;DHT22;383;48.766;9.270;2023-02-11T21:00:49;7.20;84.50
802;DHT22;383;48.766;9.270;2023-02-11T21:03:16;7.20;84.70
802;DHT22;383;48.766;9.270;2023-02-11T21:05:42;7.20;84.80
802;DHT22;383;48.766;9.270;2023-02-11T21:08:09;7.20;84.80
802;DHT22;383;48.766;9.270;2023-02-11T21:10:36;7.10;85.10
802;DHT22;383;48.766;9.270;2023-02-11T21:13:02;7.10;85.20
802;DHT22;383;48.766;9.270;2023-02-11T21:15:29;7.00;85.70
802;DHT22;383;48.766;9.270;2023-02-11T21:17:57;7.00;86.00
802;DHT22;383;48.766;9.270;2023-02-11T21:20:24;7.00;86.00
802;DHT22;383;48.766;9.270;2023-02-11T21:22:51;7.00;86.00
802;DHT22;383;48.766;9.270;2023-02-11T21:25:17;7.00;86.10
802;DHT22;383;48.766;9.270;2023-02-11T21:27:44;7.10;86.00
802;DHT22;383;48.766;9.270;2023-02-11T21:30:12;7.00;85.70
802;DHT22;383;48.766;9.270;2023-02-11T21:32:38;7.10;85.70
802;DHT22;383;48.766;9.270;2023-02-11T21:35:07;7.00;86.00
802;DHT22;383;48.766;9.270;2023-02-11T21:37:34;7.00;86.30
802;DHT22;383;48.766;9.270;2023-02-11T21:40:01;7.00;86.50
802;DHT22;383;48.766;9.270;2023-02-11T21:42:27;7.00;86.40
802;DHT22;383;48.766;9.270;2023-02-11T21:44:54;7.00;86.40
802;DHT22;383;48.766;9.270;2023-02-11T21:47:21;7.00;86.50
802;DHT22;383;48.766;9.270;2023-02-11T21:49:47;7.00;86.30
802;DHT22;383;48.766;9.270;2023-02-11T21:52:15;7.00;86.50
802;DHT22;383;48.766;9.270;2023-02-11T21:54:42;7.10;86.30
802;DHT22;383;48.766;9.270;2023-02-11T21:57:09;7.00;86.40
802;DHT22;383;48.766;9.270;2023-02-11T21:59:35;6.90;86.70
802;DHT22;383;48.766;9.270;2023-02-11T22:02:02;6.90;87.10
802;DHT22;383;48.766;9.270;2023-02-11T22:04:29;7.00;86.70
802;DHT22;383;48.766;9.270;2023-02-11T22:06:56;7.00;86.70
802;DHT22;383;48.766;9.270;2023-02-11T22:09:24;7.00;86.50
802;DHT22;383;48.766;9.270;2023-02-11T22:11:50;7.10;86.50
802;DHT22;383;48.766;9.270;2023-02-11T22:14:18;7.00;86.70
802;DHT22;383;48.766;9.270;2023-02-11T22:16:45;7.00;86.90
802;DHT22;383;48.766;9.270;2023-02-11T22:19:12;7.00;87.10
802;DHT22;383;48.766;9.270;2023-02-11T22:21:39;7.00;87.10
802;DHT22;383;48.766;9.270;2023-02-11T22:24:07;7.00;87.10
802;DHT22;383;48.766;9.270;2023-02-11T22:26:36;7.10;86.80
802;DHT22;383;48.766;9.270;2023-02-11T22:29:03;7.10;86.40
802;DHT22;383;48.766;9.270;2023-02-11T22:31:32;7.10;86.30
802;DHT22;383;48.766;9.270;2023-02-11T22:33:59;7.10;86.30
802;DHT22;383;48.766;9.270;2023-02-11T22:36:28;7.10;86.40
802;DHT22;383;48.766;9.270;2023-02-11T22:38:58;7.10;86.30
802;DHT22;383;48.766;9.270;2023-02-11T22:41:25;7.10;86.30
802;DHT22;383;48.766;9.270;2023-02-11T22:43:53;7.10;86.30
802;DHT22;383;48.766;9.270;2023-02-11T22:46:20;7.10;86.40
802;DHT22;383;48.766;9.270;2023-02-11T22:48:47;7.20;86.40
802;DHT22;383;48.766;9.270;2023-02-11T22:51:16;7.20;86.30
802;DHT22;383;48.766;9.270;2023-02-11T22:53:47;7.20;86.30
802;DHT22;383;48.766;9.270;2023-02-11T22:56:13;7.20;86.40
802;DHT22;383;48.766;9.270;2023-02-11T22:58:40;7.20;86.30
802;DHT22;383;48.766;9.270;2023-02-11T23:01:08;7.20;86.30
802;DHT22;383;48.766;9.270;2023-02-11T23:03:35;7.20;86.40
802;DHT22;383;48.766;9.270;2023-02-11T23:06:02;7.20;86.10
802;DHT22;383;48.766;9.270;2023-02-11T23:08:30;7.20;86.30
802;DHT22;383;48.766;9.270;2023-02-11T23:11:02;7.20;86.50
802;DHT22;383;48.766;9.270;2023-02-11T23:13:30;7.20;86.50
802;DHT22;383;48.766;9.270;2023-02-11T23:15:56;7.30;86.00
802;DHT22;383;48.766;9.270;2023-02-11T23:18:24;7.30;85.90
802;DHT22;383;48.766;9.270;2023-02-11T23:20:51;7.20;86.00
802;DHT22;383;48.766;9.270;2023-02-11T23:23:18;7.30;85.90
802;DHT22;383;48.766;9.270;2023-02-11T23:25:45;7.30;85.50